createdAt,value
2022-12-19T00:01:36.773Z,65.20
2022-12-19T00:04:07.977Z,65.50
2022-12-19T00:06:36.058Z,65.70
2022-12-19T00:09:03.218Z,65.60
2022-12-19T00:11:30.360Z,65.60
2022-12-19T00:13:57.564Z,65.90
2022-12-19T00:16:29.934Z,65.90
2022-12-19T00:19:00.153Z,66.10
2022-12-19T00:21:29.878Z,66.20
2022-12-19T00:23:57.473Z,66.40
2022-12-19T00:26:32.918Z,66.20
2022-12-19T00:29:02.461Z,66.10
2022-12-19T00:31:31.567Z,66.20
2022-12-19T00:33:58.413Z,66.20
2022-12-19T00:36:28.123Z,66.50
2022-12-19T00:38:57.423Z,66.40
2022-12-19T00:41:27.349Z,66.80
2022-12-19T00:43:55.034Z,66.80
2022-12-19T00:46:22.021Z,67.00
2022-12-19T00:48:49.249Z,67.00
2022-12-19T00:51:27.573Z,67.10
2022-12-19T00:53:56.083Z,67.30
2022-12-19T00:56:25.497Z,67.20
2022-12-19T00:58:53.830Z,67.10
2022-12-19T01:01:27.295Z,67.10
2022-12-19T01:04:26.483Z,67.00
2022-12-19T01:06:41.744Z,66.80
2022-12-19T01:09:09.157Z,67.10
2022-12-19T01:11:54.375Z,67.10
2022-12-19T01:14:23.302Z,67.00
2022-12-19T01:16:52.516Z,67.10
2022-12-19T01:19:20.542Z,67.20
2022-12-19T01:21:47.481Z,67.20
2022-12-19T01:24:18.908Z,67.10
2022-12-19T01:26:46.493Z,67.40
2022-12-19T01:29:13.236Z,67.40
2022-12-19T01:31:40.016Z,67.30
2022-12-19T01:34:06.822Z,67.40
2022-12-19T01:36:34.789Z,67.60
2022-12-19T01:39:07.067Z,67.50
2022-12-19T01:41:33.892Z,67.50
2022-12-19T01:44:06.291Z,67.40
2022-12-19T01:46:34.926Z,67.40
2022-12-19T01:49:02.518Z,67.50
2022-12-19T01:51:39.545Z,67.60
2022-12-19T01:54:10.212Z,67.60
2022-12-19T01:56:41.496Z,67.60
2022-12-19T01:59:16.378Z,67.60
2022-12-19T02:01:50.905Z,67.50
2022-12-19T02:04:19.737Z,67.60
2022-12-19T02:06:48.364Z,67.70
2022-12-19T02:09:15.555Z,67.80
2022-12-19T02:11:42.420Z,67.90
2022-12-19T02:14:09.321Z,67.90
2022-12-19T02:16:39.034Z,67.90
2022-12-19T02:19:14.807Z,67.90
2022-12-19T02:21:46.949Z,68.20
2022-12-19T02:24:40.305Z,68.60
2022-12-19T02:27:22.440Z,68.80
2022-12-19T02:30:13.161Z,68.90
2022-12-19T02:32:43.243Z,68.80
2022-12-19T02:35:31.640Z,68.90
2022-12-19T02:38:13.532Z,69.00
2022-12-19T02:40:56.923Z,69.10
2022-12-19T02:43:28.065Z,69.30
2022-12-19T02:45:55.984Z,69.30
2022-12-19T02:48:23.143Z,69.40
2022-12-19T02:50:50.627Z,69.40
2022-12-19T02:53:21.823Z,69.60
2022-12-19T02:56:15.308Z,69.30
2022-12-19T02:59:11.493Z,69.30
2022-12-19T03:01:59.970Z,69.50
2022-12-19T03:04:46.615Z,69.50
2022-12-19T03:07:30.289Z,69.50
2022-12-19T03:10:09.315Z,69.60
2022-12-19T03:12:48.759Z,69.70
2022-12-19T03:15:16.367Z,69.60
2022-12-19T03:17:43.735Z,69.70
2022-12-19T03:20:32.574Z,69.60
2022-12-19T03:22:59.274Z,69.80
2022-12-19T03:25:28.523Z,69.90
2022-12-19T03:27:57.668Z,70.00
2022-12-19T03:30:24.513Z,70.00
2022-12-19T03:32:52.756Z,70.00
2022-12-19T03:35:26.295Z,70.10
2022-12-19T03:37:56.054Z,70.10
2022-12-19T03:40:26.055Z,70.20
2022-12-19T03:43:12.287Z,70.00
2022-12-19T03:45:57.020Z,70.00
2022-12-19T03:48:38.308Z,70.40
2022-12-19T03:51:31.743Z,70.60
2022-12-19T03:54:10.004Z,70.50
2022-12-19T03:56:52.348Z,70.40
2022-12-19T03:59:39.167Z,70.50
2022-12-19T04:02:07.034Z,70.40
2022-12-19T04:04:41.563Z,70.50
2022-12-19T04:07:10.235Z,70.60
2022-12-19T04:09:38.779Z,70.60
2022-12-19T04:12:14.416Z,70.50
2022-12-19T04:14:41.899Z,70.50
2022-12-19T04:17:20.108Z,70.80
2022-12-19T04:19:53.867Z,70.70
2022-12-19T04:22:30.363Z,70.80
2022-12-19T04:25:00.222Z,70.80
2022-12-19T04:27:32.804Z,70.80
2022-12-19T04:30:00.974Z,70.70
2022-12-19T04:32:29.928Z,70.60
2022-12-19T04:34:56.758Z,70.90
2022-12-19T04:37:23.571Z,71.00
2022-12-19T04:39:50.399Z,71.20
2022-12-19T04:42:17.185Z,71.10
2022-12-19T04:44:43.999Z,71.10
2022-12-19T04:47:10.817Z,71.20
2022-12-19T04:49:37.567Z,71.20
2022-12-19T04:52:04.365Z,71.30
2022-12-19T04:54:32.770Z,71.70
2022-12-19T04:56:59.638Z,71.50
2022-12-19T04:59:26.515Z,71.80
2022-12-19T05:01:53.653Z,71.80
2022-12-19T05:04:20.539Z,71.70
2022-12-19T05:06:47.359Z,71.80
2022-12-19T05:09:14.156Z,71.90
2022-12-19T05:11:40.934Z,71.90
2022-12-19T05:14:07.901Z,71.80
2022-12-19T05:16:34.731Z,71.70
2022-12-19T05:19:01.574Z,71.90
2022-12-19T05:21:28.560Z,72.00
2022-12-19T05:23:55.458Z,72.00
2022-12-19T05:26:22.251Z,72.20
2022-12-19T05:28:49.039Z,72.30
2022-12-19T05:31:19.949Z,72.30
2022-12-19T05:33:48.303Z,72.40
2022-12-19T05:36:17.192Z,72.40
2022-12-19T05:38:44.442Z,72.60
2022-12-19T05:41:18.371Z,72.70
2022-12-19T05:43:49.009Z,72.60
2022-12-19T05:46:16.177Z,72.30
2022-12-19T05:48:42.981Z,72.50
2022-12-19T05:51:10.304Z,72.60
2022-12-19T05:53:39.434Z,72.80
2022-12-19T05:56:08.636Z,72.90
2022-12-19T05:58:36.345Z,73.00
2022-12-19T06:01:08.865Z,73.10
2022-12-19T06:03:35.637Z,72.90
2022-12-19T06:06:05.109Z,73.20
2022-12-19T06:08:32.623Z,73.30
2022-12-19T06:11:00.599Z,73.40
2022-12-19T06:13:28.256Z,73.70
2022-12-19T06:16:07.475Z,73.70
2022-12-19T06:18:34.800Z,74.10
2022-12-19T06:21:07.179Z,73.80
2022-12-19T06:23:36.363Z,74.30
2022-12-19T06:26:05.297Z,74.40
2022-12-19T06:28:33.439Z,74.30
2022-12-19T06:31:02.107Z,74.60
2022-12-19T06:33:29.768Z,74.70
2022-12-19T06:36:01.445Z,74.60
2022-12-19T06:38:29.758Z,74.60
2022-12-19T06:41:14.916Z,74.70
2022-12-19T06:43:41.817Z,75.00
2022-12-19T06:46:09.458Z,75.20
2022-12-19T06:48:36.435Z,75.20
2022-12-19T06:51:03.318Z,75.30
2022-12-19T06:53:30.418Z,75.50
2022-12-19T06:55:59.233Z,75.40
2022-12-19T06:58:26.580Z,75.40
2022-12-19T07:00:54.153Z,75.40
2022-12-19T07:03:29.415Z,75.50
2022-12-19T07:05:56.353Z,75.60
2022-12-19T07:08:23.172Z,75.60
2022-12-19T07:10:49.929Z,75.80
2022-12-19T07:13:17.039Z,75.80
2022-12-19T07:15:44.031Z,75.90
2022-12-19T07:18:11.222Z,75.80
2022-12-19T07:20:44.930Z,75.60
2022-12-19T07:23:17.691Z,76.00
2022-12-19T07:25:44.362Z,75.60
2022-12-19T07:28:11.307Z,76.00
2022-12-19T07:30:38.220Z,76.00
2022-12-19T07:33:04.949Z,76.10
2022-12-19T07:35:31.828Z,76.10
2022-12-19T07:38:03.064Z,76.10
2022-12-19T07:40:33.456Z,76.20
2022-12-19T07:43:01.170Z,76.00
2022-12-19T07:45:28.954Z,76.10
2022-12-19T07:47:56.085Z,76.50
2022-12-19T07:50:22.866Z,76.50
2022-12-19T07:52:49.660Z,76.30
2022-12-19T07:55:16.607Z,76.30
2022-12-19T07:57:43.777Z,76.50
2022-12-19T08:00:11.010Z,76.60
2022-12-19T08:02:37.914Z,76.60
2022-12-19T08:05:05.890Z,76.60
2022-12-19T08:07:32.973Z,76.40
2022-12-19T08:09:59.714Z,76.60
2022-12-19T08:12:27.115Z,76.60
2022-12-19T08:14:57.108Z,77.30
2022-12-19T08:17:24.419Z,76.80
2022-12-19T08:19:51.316Z,76.90
2022-12-19T08:22:18.071Z,77.00
2022-12-19T08:24:45.427Z,77.10
2022-12-19T08:27:12.275Z,77.20
2022-12-19T08:29:39.063Z,77.10
2022-12-19T08:32:05.854Z,77.10
2022-12-19T08:34:32.954Z,77.30
2022-12-19T08:36:59.784Z,77.30
2022-12-19T08:39:26.432Z,77.50
2022-12-19T08:41:53.176Z,77.50
2022-12-19T08:44:20.069Z,77.70
2022-12-19T08:46:50.184Z,77.50
2022-12-19T08:49:18.807Z,77.50
2022-12-19T08:51:46.137Z,77.60
2022-12-19T08:54:13.035Z,77.60
2022-12-19T08:56:41.421Z,77.40
2022-12-19T08:59:13.373Z,77.60
2022-12-19T09:01:41.747Z,77.40
2022-12-19T09:05:07.764Z,77.60
2022-12-19T09:06:56.733Z,77.50
2022-12-19T09:09:23.539Z,77.40
2022-12-19T09:11:50.320Z,77.40
2022-12-19T09:14:21.011Z,77.40
2022-12-19T09:16:48.673Z,77.40
2022-12-19T09:19:16.351Z,77.30
2022-12-19T09:21:43.409Z,77.40
2022-12-19T09:24:11.194Z,77.40
2022-12-19T09:26:39.397Z,77.20
2022-12-19T09:29:19.449Z,77.30
2022-12-19T09:31:46.925Z,77.10
2022-12-19T09:34:13.711Z,77.20
2022-12-19T09:36:40.699Z,77.20
2022-12-19T09:39:07.549Z,77.20
2022-12-19T09:41:51.670Z,77.20
2022-12-19T09:44:49.066Z,76.90
2022-12-19T09:47:24.141Z,77.10
2022-12-19T09:49:54.094Z,77.20
2022-12-19T09:52:41.531Z,76.90
2022-12-19T09:55:31.469Z,76.90
2022-12-19T09:58:17.814Z,76.80
2022-12-19T10:00:55.064Z,76.70
2022-12-19T10:03:39.803Z,77.00
2022-12-19T10:07:02.292Z,76.70
2022-12-19T10:10:58.068Z,76.80
2022-12-19T10:12:44.384Z,76.90
2022-12-19T10:15:13.949Z,76.90
2022-12-19T10:18:15.865Z,76.90
2022-12-19T10:20:47.764Z,77.20
2022-12-19T10:23:40.749Z,77.10
2022-12-19T10:26:43.319Z,77.10
2022-12-19T10:29:19.374Z,76.60
2022-12-19T10:31:58.679Z,76.80
2022-12-19T10:34:39.862Z,76.70
2022-12-19T10:37:29.064Z,76.50
2022-12-19T10:40:28.916Z,76.40
2022-12-19T10:43:15.248Z,76.40
2022-12-19T10:45:52.608Z,76.40
2022-12-19T10:48:22.818Z,76.40
2022-12-19T10:50:57.281Z,76.30
2022-12-19T10:53:29.393Z,76.50
2022-12-19T10:56:02.381Z,76.40
2022-12-19T10:58:42.237Z,76.30
2022-12-19T11:01:36.368Z,76.80
2022-12-19T11:04:15.535Z,76.80
2022-12-19T11:06:51.257Z,76.60
2022-12-19T11:09:18.368Z,76.30
2022-12-19T11:14:45.128Z,76.40
2022-12-19T11:20:10.122Z,76.40
2022-12-19T11:24:13.812Z,76.40
2022-12-19T11:29:32.362Z,76.30
2022-12-19T11:30:09.733Z,76.30
2022-12-19T11:30:41.546Z,76.00
2022-12-19T11:32:42.400Z,76.30
2022-12-19T11:35:24.826Z,76.90
2022-12-19T11:37:56.679Z,76.20
2022-12-19T11:40:48.613Z,76.30
2022-12-19T11:46:34.327Z,76.30
2022-12-19T11:49:10.766Z,76.10
2022-12-19T11:51:46.193Z,76.10
2022-12-19T11:54:23.942Z,76.00
2022-12-19T11:56:50.846Z,76.00
2022-12-19T11:59:25.869Z,76.00
2022-12-19T12:02:05.810Z,76.00
2022-12-19T12:04:55.983Z,76.00
2022-12-19T12:07:43.138Z,76.00
2022-12-19T12:14:12.097Z,76.20
2022-12-19T12:23:54.660Z,75.80
2022-12-19T12:31:00.089Z,75.90
2022-12-19T12:31:04.353Z,76.00
2022-12-19T12:31:17.060Z,75.70
2022-12-19T12:31:50.064Z,75.60
2022-12-19T12:31:51.154Z,75.80
2022-12-19T12:35:34.424Z,75.20
2022-12-19T12:40:47.909Z,75.10
2022-12-19T12:43:20.537Z,74.90
2022-12-19T12:45:47.378Z,74.70
2022-12-19T12:48:27.673Z,74.50
2022-12-19T12:50:57.927Z,74.40
2022-12-19T12:53:35.248Z,74.80
2022-12-19T12:56:05.638Z,74.00
2022-12-19T12:58:46.552Z,73.70
2022-12-19T13:01:17.608Z,73.60
2022-12-19T13:04:02.865Z,73.10
2022-12-19T13:06:38.281Z,73.20
2022-12-19T13:09:20.284Z,73.10
2022-12-19T13:12:08.770Z,72.90
2022-12-19T13:14:35.712Z,72.90
2022-12-19T13:17:06.994Z,72.80
2022-12-19T13:19:36.354Z,72.60
2022-12-19T13:22:08.742Z,72.40
2022-12-19T13:24:52.580Z,72.30
2022-12-19T13:27:19.352Z,72.30
2022-12-19T13:30:01.283Z,72.20
2022-12-19T13:32:53.751Z,72.20
2022-12-19T13:35:57.638Z,72.10
2022-12-19T13:39:49.684Z,71.80
2022-12-19T13:41:46.554Z,71.90
2022-12-19T13:44:13.688Z,71.70
2022-12-19T13:46:43.573Z,71.60
2022-12-19T13:49:10.462Z,71.40
2022-12-19T13:51:54.664Z,71.60
2022-12-19T13:54:27.028Z,71.40
2022-12-19T13:56:55.528Z,71.40
2022-12-19T13:59:25.680Z,71.30
2022-12-19T14:01:54.159Z,71.40
2022-12-19T14:04:31.855Z,71.30
2022-12-19T14:07:05.167Z,71.30
2022-12-19T14:11:34.975Z,71.20
2022-12-19T14:13:55.645Z,71.10
2022-12-19T14:15:56.278Z,71.10
2022-12-19T14:18:42.713Z,71.10
2022-12-19T14:22:06.931Z,71.00
2022-12-19T14:24:19.976Z,71.00
2022-12-19T14:28:21.796Z,70.90
2022-12-19T14:30:29.765Z,70.90
2022-12-19T14:33:40.225Z,70.90
2022-12-19T14:36:12.553Z,70.90
2022-12-19T14:39:20.615Z,70.60
2022-12-19T14:41:46.811Z,70.50
2022-12-19T14:53:52.624Z,70.30
2022-12-19T14:54:03.917Z,70.40
2022-12-19T14:54:07.206Z,70.20
2022-12-19T14:54:31.033Z,70.20
2022-12-19T14:56:19.781Z,69.90
2022-12-19T14:58:53.098Z,70.10
2022-12-19T15:01:27.210Z,69.70
2022-12-19T15:04:52.516Z,69.70
2022-12-19T15:07:23.415Z,69.60
2022-12-19T15:11:04.725Z,69.50
2022-12-19T15:14:56.803Z,69.50
2022-12-19T15:16:04.528Z,69.50
2022-12-19T15:18:34.363Z,69.60
2022-12-19T15:21:08.036Z,69.50
2022-12-19T15:23:34.953Z,69.60
2022-12-19T15:26:06.940Z,69.60
2022-12-19T15:28:51.175Z,69.60
2022-12-19T15:31:21.777Z,69.60
2022-12-19T15:34:23.204Z,69.70
2022-12-19T15:36:35.469Z,69.60
2022-12-19T15:39:03.803Z,69.80
2022-12-19T15:41:31.349Z,70.10
2022-12-19T15:44:06.201Z,70.30
2022-12-19T15:46:33.750Z,70.30
2022-12-19T15:49:01.345Z,70.30
2022-12-19T15:51:28.240Z,70.30
2022-12-19T15:54:08.956Z,70.50
2022-12-19T15:56:50.338Z,70.80
2022-12-19T15:59:37.193Z,70.90
2022-12-19T16:02:22.751Z,71.10
2022-12-19T16:04:51.213Z,71.20
2022-12-19T16:07:20.564Z,71.40
2022-12-19T16:09:48.192Z,71.30
2022-12-19T16:12:24.490Z,71.30
2022-12-19T16:14:57.330Z,71.40
2022-12-19T16:17:25.962Z,71.40
2022-12-19T16:19:52.644Z,71.40
2022-12-19T16:22:25.378Z,71.40
2022-12-19T16:24:53.647Z,71.40
2022-12-19T16:27:31.353Z,71.40
2022-12-19T16:30:19.916Z,71.40
2022-12-19T16:32:47.839Z,71.30
2022-12-19T16:35:40.647Z,71.30
2022-12-19T16:38:10.901Z,71.20
2022-12-19T16:40:37.635Z,71.10
2022-12-19T16:43:27.827Z,70.90
2022-12-19T16:46:00.558Z,70.90
2022-12-19T16:48:32.254Z,70.70
2022-12-19T16:50:59.925Z,70.50
2022-12-19T16:53:27.173Z,70.50
2022-12-19T16:55:56.480Z,70.50
2022-12-19T16:58:26.391Z,70.30
2022-12-19T17:00:55.183Z,70.40
2022-12-19T17:03:31.247Z,70.40
2022-12-19T17:05:58.286Z,70.30
2022-12-19T17:08:25.280Z,70.30
2022-12-19T17:10:53.461Z,70.10
2022-12-19T17:13:21.842Z,70.20
2022-12-19T17:15:54.497Z,70.10
2022-12-19T17:18:27.097Z,70.10
2022-12-19T17:20:53.946Z,70.10
2022-12-19T17:23:22.781Z,69.90
2022-12-19T17:25:50.436Z,70.00
2022-12-19T17:28:17.228Z,69.90
2022-12-19T17:30:50.303Z,69.80
2022-12-19T17:33:18.305Z,69.80
2022-12-19T17:35:45.590Z,69.90
2022-12-19T17:38:17.310Z,69.50
2022-12-19T17:40:44.907Z,69.50
2022-12-19T17:43:13.644Z,69.50
2022-12-19T17:45:41.067Z,69.50
2022-12-19T17:48:28.175Z,69.30
2022-12-19T17:50:55.681Z,69.40
2022-12-19T17:53:23.037Z,69.40
2022-12-19T17:55:50.210Z,69.30
2022-12-19T17:58:17.285Z,69.30
2022-12-19T18:00:47.334Z,69.30
2022-12-19T18:03:22.283Z,69.30
2022-12-19T18:05:50.878Z,69.20
2022-12-19T18:08:25.552Z,69.20
2022-12-19T18:10:53.163Z,69.10
2022-12-19T18:13:20.623Z,69.10
2022-12-19T18:15:47.612Z,69.80
2022-12-19T18:18:18.416Z,69.00
2022-12-19T18:20:45.553Z,69.20
2022-12-19T18:23:21.405Z,69.00
2022-12-19T18:25:49.066Z,68.90
2022-12-19T18:28:16.169Z,68.90
2022-12-19T18:30:46.873Z,69.00
2022-12-19T18:33:21.416Z,69.00
2022-12-19T18:35:50.512Z,68.90
2022-12-19T18:38:22.642Z,68.90
2022-12-19T18:40:51.874Z,68.70
2022-12-19T18:43:19.555Z,68.80
2022-12-19T18:45:50.268Z,68.60
2022-12-19T18:48:24.128Z,68.70
2022-12-19T18:50:51.434Z,68.60
2022-12-19T18:53:21.676Z,68.70
2022-12-19T18:55:49.010Z,68.40
2022-12-19T18:58:15.801Z,68.70
2022-12-19T19:00:42.633Z,69.20
2022-12-19T19:03:16.694Z,68.70
2022-12-19T19:05:44.731Z,68.70
2022-12-19T19:08:22.648Z,68.60
2022-12-19T19:10:51.581Z,68.50
2022-12-19T19:13:20.207Z,69.10
2022-12-19T19:15:49.992Z,68.40
2022-12-19T19:18:22.464Z,68.50
2022-12-19T19:20:54.341Z,68.40
2022-12-19T19:23:32.067Z,68.40
2022-12-19T19:25:58.882Z,68.40
2022-12-19T19:28:25.690Z,68.40
2022-12-19T19:30:52.753Z,68.40
2022-12-19T19:33:28.893Z,68.50
2022-12-19T19:36:04.706Z,68.40
2022-12-19T19:38:36.816Z,68.50
2022-12-19T19:41:04.095Z,68.40
2022-12-19T19:43:34.044Z,68.40
2022-12-19T19:46:02.677Z,68.30
2022-12-19T19:48:29.922Z,68.30
2022-12-19T19:50:56.985Z,68.20
2022-12-19T19:53:23.861Z,68.40
2022-12-19T19:55:57.614Z,68.20
2022-12-19T19:58:24.572Z,68.40
2022-12-19T20:00:51.367Z,68.40
2022-12-19T20:03:22.603Z,68.50
2022-12-19T20:05:50.405Z,68.40
2022-12-19T20:08:17.256Z,68.40
2022-12-19T20:10:44.072Z,68.40
2022-12-19T20:13:11.266Z,68.20
2022-12-19T20:15:40.677Z,68.40
2022-12-19T20:18:11.334Z,68.40
2022-12-19T20:20:38.230Z,68.40
2022-12-19T20:23:06.134Z,68.50
2022-12-19T20:25:35.675Z,68.40
2022-12-19T20:28:02.967Z,68.30
2022-12-19T20:30:30.155Z,68.40
2022-12-19T20:32:57.229Z,68.40
2022-12-19T20:35:24.009Z,68.40
2022-12-19T20:37:50.697Z,68.40
2022-12-19T20:40:17.488Z,68.60
2022-12-19T20:42:44.736Z,68.50
2022-12-19T20:45:11.570Z,68.40
2022-12-19T20:47:38.411Z,68.50
2022-12-19T20:50:06.109Z,68.60
2022-12-19T20:52:32.897Z,68.80
2022-12-19T20:54:59.589Z,68.80
2022-12-19T20:57:27.483Z,68.80
2022-12-19T20:59:54.360Z,68.90
2022-12-19T21:02:22.818Z,68.90
2022-12-19T21:04:49.694Z,69.00
2022-12-19T21:07:16.591Z,69.10
2022-12-19T21:09:45.171Z,69.10
2022-12-19T21:12:12.721Z,69.10
2022-12-19T21:14:39.471Z,69.10
2022-12-19T21:17:06.326Z,69.10
2022-12-19T21:19:33.346Z,69.20
2022-12-19T21:22:00.171Z,69.20
2022-12-19T21:24:27.252Z,69.20
2022-12-19T21:26:57.951Z,69.20
2022-12-19T21:29:25.557Z,69.10
2022-12-19T21:31:52.516Z,69.10
2022-12-19T21:34:19.392Z,69.10
2022-12-19T21:36:46.280Z,69.20
2022-12-19T21:39:13.196Z,69.20
2022-12-19T21:41:40.119Z,69.00
2022-12-19T21:44:06.959Z,69.30
2022-12-19T21:46:34.147Z,69.30
2022-12-19T21:49:02.877Z,69.20
2022-12-19T21:51:31.437Z,69.10
2022-12-19T21:54:00.733Z,69.20
2022-12-19T21:56:30.607Z,69.10
2022-12-19T21:59:00.818Z,69.10
2022-12-19T22:01:28.791Z,68.90
2022-12-19T22:04:07.665Z,69.10
2022-12-19T22:06:37.076Z,69.10
2022-12-19T22:09:05.970Z,69.10
2022-12-19T22:11:33.101Z,69.10
2022-12-19T22:14:01.484Z,69.00
2022-12-19T22:16:29.231Z,69.00
2022-12-19T22:18:56.606Z,68.90
2022-12-19T22:21:24.269Z,69.00
2022-12-19T22:23:52.554Z,68.90
2022-12-19T22:26:22.367Z,68.80
2022-12-19T22:28:51.840Z,68.80
2022-12-19T22:31:29.529Z,68.80
2022-12-19T22:33:59.492Z,68.80
2022-12-19T22:36:28.962Z,68.70
2022-12-19T22:38:57.312Z,68.70
2022-12-19T22:41:24.921Z,68.70
2022-12-19T22:43:52.683Z,68.70
2022-12-19T22:46:22.301Z,68.70
2022-12-19T22:48:50.206Z,68.70
2022-12-19T22:51:18.393Z,68.60
2022-12-19T22:53:46.117Z,68.50
2022-12-19T22:56:23.235Z,68.50
2022-12-19T22:58:52.491Z,68.50
2022-12-19T23:01:23.874Z,68.30
2022-12-19T23:03:52.555Z,68.40
2022-12-19T23:06:20.530Z,68.30
2022-12-19T23:08:47.684Z,68.30
2022-12-19T23:11:17.592Z,68.30
2022-12-19T23:13:46.124Z,68.20
2022-12-19T23:16:13.534Z,68.20
2022-12-19T23:18:41.101Z,68.30
2022-12-19T23:21:10.627Z,68.40
2022-12-19T23:23:39.938Z,68.30
2022-12-19T23:26:15.011Z,68.40
2022-12-19T23:28:43.729Z,68.50
2022-12-19T23:31:12.614Z,68.90
2022-12-19T23:33:39.576Z,68.30
2022-12-19T23:36:06.974Z,68.30
2022-12-19T23:38:34.249Z,68.30
2022-12-19T23:41:06.286Z,68.10
2022-12-19T23:43:35.569Z,68.20
2022-12-19T23:46:14.090Z,68.30
2022-12-19T23:48:41.298Z,68.20
2022-12-19T23:51:11.522Z,68.10
2022-12-19T23:53:38.314Z,68.00
2022-12-19T23:56:11.077Z,68.00
2022-12-19T23:58:37.785Z,67.90
